createdAt,value
2022-07-28T00:00:57.206Z,97.60
2022-07-28T00:03:47.197Z,97.30
2022-07-28T00:06:34.639Z,97.00
2022-07-28T00:09:21.895Z,97.90
2022-07-28T00:12:09.936Z,97.20
2022-07-28T00:14:57.351Z,96.80
2022-07-28T00:17:44.755Z,95.90
2022-07-28T00:20:33.437Z,96.60
2022-07-28T00:23:21.016Z,96.90
2022-07-28T00:26:10.474Z,97.20
2022-07-28T00:28:57.776Z,96.50
2022-07-28T00:31:45.247Z,96.80
2022-07-28T00:34:33.054Z,96.80
2022-07-28T00:37:25.808Z,96.80
2022-07-28T00:40:14.524Z,95.80
2022-07-28T00:43:02.083Z,96.20
2022-07-28T00:45:49.493Z,96.50
2022-07-28T00:48:39.412Z,96.50
2022-07-28T00:51:28.663Z,95.90
2022-07-28T00:54:17.582Z,96.00
2022-07-28T00:57:05.581Z,96.10
2022-07-28T00:59:52.881Z,96.20
2022-07-28T01:02:40.227Z,96.20
2022-07-28T01:05:43.608Z,96.10
2022-07-28T01:08:44.930Z,94.20
2022-07-28T01:11:44.013Z,94.90
2022-07-28T01:14:40.677Z,93.20
2022-07-28T01:17:35.607Z,93.90
2022-07-28T01:20:30.453Z,95.00
2022-07-28T01:24:05.871Z,95.60
2022-07-28T01:27:01.052Z,94.90
2022-07-28T01:30:06.730Z,94.90
2022-07-28T01:33:02.735Z,94.60
2022-07-28T01:35:59.844Z,94.50
2022-07-28T01:38:50.318Z,95.70
2022-07-28T01:41:38.840Z,95.10
2022-07-28T01:44:29.402Z,95.60
2022-07-28T01:47:19.653Z,95.10
2022-07-28T01:50:11.775Z,94.20
2022-07-28T01:53:00.263Z,93.70
2022-07-28T01:55:50.743Z,94.10
2022-07-28T01:58:40.178Z,95.40
2022-07-28T02:01:29.214Z,95.30
2022-07-28T02:04:20.303Z,95.60
2022-07-28T02:07:11.377Z,93.60
2022-07-28T02:10:01.424Z,93.10
2022-07-28T02:12:51.456Z,92.90
2022-07-28T02:15:40.395Z,93.90
2022-07-28T02:18:29.018Z,94.40
2022-07-28T02:21:17.360Z,93.30
2022-07-28T02:24:09.306Z,93.30
2022-07-28T02:27:02.397Z,93.10
2022-07-28T02:29:53.851Z,92.40
2022-07-28T02:32:46.443Z,93.30
2022-07-28T02:35:39.806Z,93.60
2022-07-28T02:38:33.448Z,91.70
2022-07-28T02:41:27.753Z,92.20
2022-07-28T02:44:22.029Z,92.20
2022-07-28T02:47:14.085Z,92.40
2022-07-28T02:50:04.035Z,92.50
2022-07-28T02:52:53.191Z,91.90
2022-07-28T02:55:42.263Z,92.80
2022-07-28T02:58:31.529Z,92.20
2022-07-28T03:01:20.328Z,92.30
2022-07-28T03:04:08.539Z,91.40
2022-07-28T03:06:55.962Z,91.30
2022-07-28T03:09:47.522Z,91.40
2022-07-28T03:12:35.674Z,90.80
2022-07-28T03:15:25.599Z,91.00
2022-07-28T03:18:13.386Z,90.30
2022-07-28T03:21:01.061Z,91.10
2022-07-28T03:23:51.611Z,91.30
2022-07-28T03:26:48.017Z,91.30
2022-07-28T03:29:37.046Z,90.10
2022-07-28T03:32:29.530Z,89.50
2022-07-28T03:35:17.453Z,90.40
2022-07-28T03:38:12.783Z,90.60
2022-07-28T03:41:01.085Z,90.20
2022-07-28T03:43:50.548Z,90.20
2022-07-28T03:46:45.054Z,90.50
2022-07-28T03:49:34.303Z,90.50
2022-07-28T03:52:21.897Z,89.60
2022-07-28T03:55:15.127Z,90.50
2022-07-28T03:58:02.975Z,90.30
2022-07-28T04:00:51.538Z,90.40
2022-07-28T04:03:44.000Z,90.50
2022-07-28T04:06:33.224Z,90.00
2022-07-28T04:09:21.052Z,90.40
2022-07-28T04:12:09.666Z,90.50
2022-07-28T04:14:57.264Z,90.60
2022-07-28T04:17:45.446Z,90.50
2022-07-28T04:20:33.570Z,90.10
2022-07-28T04:23:24.069Z,90.20
2022-07-28T04:26:11.905Z,90.00
2022-07-28T04:28:59.348Z,90.30
2022-07-28T04:31:50.997Z,90.20
2022-07-28T04:34:38.532Z,90.60
2022-07-28T04:37:27.271Z,90.30
2022-07-28T04:40:21.227Z,90.50
2022-07-28T04:43:10.306Z,90.50
2022-07-28T04:45:58.080Z,90.70
2022-07-28T04:48:46.140Z,90.60
2022-07-28T04:51:33.895Z,90.80
2022-07-28T04:54:26.337Z,90.80
2022-07-28T04:57:15.719Z,90.20
2022-07-28T05:00:03.870Z,90.20
2022-07-28T05:02:51.981Z,90.60
2022-07-28T05:05:39.828Z,90.90
2022-07-28T05:08:27.199Z,90.70
2022-07-28T05:11:15.053Z,90.50
2022-07-28T05:14:03.733Z,90.80
2022-07-28T05:16:51.407Z,90.40
2022-07-28T05:19:39.021Z,90.90
2022-07-28T05:22:26.492Z,90.90
2022-07-28T05:25:20.101Z,91.00
2022-07-28T05:28:07.613Z,90.50
2022-07-28T05:30:56.452Z,90.80
2022-07-28T05:33:43.922Z,88.90
2022-07-28T05:36:32.608Z,90.10
2022-07-28T05:39:20.183Z,90.30
2022-07-28T05:42:08.244Z,90.10
2022-07-28T05:44:55.894Z,90.70
2022-07-28T05:47:47.451Z,90.70
2022-07-28T05:50:35.402Z,90.40
2022-07-28T05:53:23.088Z,91.00
2022-07-28T05:56:10.501Z,90.90
2022-07-28T05:58:57.986Z,91.00
2022-07-28T06:01:46.185Z,91.30
2022-07-28T06:04:35.459Z,90.80
2022-07-28T06:07:23.364Z,91.00
2022-07-28T06:10:51.776Z,91.10
2022-07-28T06:13:40.303Z,91.10
2022-07-28T06:16:27.997Z,91.00
2022-07-28T06:19:15.532Z,91.10
2022-07-28T06:22:06.282Z,91.40
2022-07-28T06:24:53.677Z,90.70
2022-07-28T06:27:41.083Z,91.00
2022-07-28T06:30:29.438Z,91.50
2022-07-28T06:33:17.544Z,91.60
2022-07-28T06:36:05.277Z,91.30
2022-07-28T06:38:54.036Z,91.10
2022-07-28T06:41:44.543Z,90.70
2022-07-28T06:44:57.311Z,90.10
2022-07-28T06:47:45.763Z,90.70
2022-07-28T06:50:34.519Z,91.10
2022-07-28T06:53:21.866Z,91.10
2022-07-28T06:56:13.778Z,91.20
2022-07-28T06:59:03.034Z,91.60
2022-07-28T07:01:50.428Z,91.20
2022-07-28T07:04:38.258Z,92.00
2022-07-28T07:07:26.408Z,91.30
2022-07-28T07:10:14.001Z,91.30
2022-07-28T07:13:03.302Z,91.40
2022-07-28T07:15:50.675Z,90.90
2022-07-28T07:18:38.219Z,91.40
2022-07-28T07:21:25.715Z,91.20
2022-07-28T07:24:15.087Z,91.30
2022-07-28T07:27:02.909Z,91.40
2022-07-28T07:29:51.864Z,91.50
2022-07-28T07:32:39.871Z,91.40
2022-07-28T07:35:27.461Z,91.30
2022-07-28T07:38:15.898Z,91.50
2022-07-28T07:41:03.700Z,91.20
2022-07-28T07:43:51.547Z,91.20
2022-07-28T07:46:43.373Z,91.20
2022-07-28T07:49:45.083Z,90.70
2022-07-28T07:52:35.592Z,91.30
2022-07-28T07:55:24.935Z,91.10
2022-07-28T07:58:12.769Z,91.10
2022-07-28T08:01:00.254Z,91.10
2022-07-28T08:03:49.989Z,90.90
2022-07-28T08:06:37.892Z,89.00
2022-07-28T08:09:27.179Z,90.40
2022-07-28T08:12:15.815Z,90.60
2022-07-28T08:15:04.510Z,87.80
2022-07-28T08:17:52.133Z,87.60
2022-07-28T08:20:41.189Z,87.10
2022-07-28T08:23:29.102Z,87.40
2022-07-28T08:26:16.903Z,89.10
2022-07-28T08:29:05.948Z,86.20
2022-07-28T08:31:53.676Z,87.90
2022-07-28T08:34:41.692Z,88.10
2022-07-28T08:37:30.797Z,88.90
2022-07-28T08:40:18.057Z,88.40
2022-07-28T08:43:16.812Z,88.00
2022-07-28T08:46:06.786Z,86.80
2022-07-28T08:48:54.959Z,88.50
2022-07-28T08:51:45.700Z,88.00
2022-07-28T08:54:35.288Z,87.10
2022-07-28T08:57:29.733Z,85.80
2022-07-28T09:00:18.560Z,85.80
2022-07-28T09:03:07.862Z,86.30
2022-07-28T09:05:58.668Z,85.60
2022-07-28T09:08:47.740Z,86.40
2022-07-28T09:11:37.264Z,86.80
2022-07-28T09:14:25.410Z,85.30
2022-07-28T09:17:14.006Z,86.70
2022-07-28T09:20:05.166Z,84.00
2022-07-28T09:23:02.651Z,85.60
2022-07-28T09:25:50.473Z,83.90
2022-07-28T09:28:49.389Z,85.80
2022-07-28T09:31:36.810Z,82.90
2022-07-28T09:34:25.038Z,86.50
2022-07-28T09:37:24.780Z,86.40
2022-07-28T09:40:16.500Z,80.20
2022-07-28T09:43:04.290Z,82.60
2022-07-28T09:46:09.333Z,81.30
2022-07-28T09:49:02.649Z,81.20
2022-07-28T09:52:05.868Z,82.50
2022-07-28T09:55:02.176Z,82.40
2022-07-28T09:57:50.898Z,80.80
2022-07-28T10:00:39.583Z,83.10
2022-07-28T10:03:28.591Z,81.10
2022-07-28T10:06:18.193Z,81.10
2022-07-28T10:09:08.145Z,80.80
2022-07-28T10:12:17.431Z,82.50
2022-07-28T10:15:35.573Z,80.30
2022-07-28T10:18:23.841Z,79.90
2022-07-28T10:21:16.986Z,82.70
2022-07-28T10:24:08.639Z,79.20
2022-07-28T10:26:58.726Z,78.50
2022-07-28T10:29:46.577Z,78.20
2022-07-28T10:32:40.167Z,80.30
2022-07-28T10:35:28.893Z,76.60
2022-07-28T10:38:21.268Z,80.70
2022-07-28T10:41:20.693Z,77.20
2022-07-28T10:44:14.297Z,78.60
2022-07-28T10:47:02.812Z,79.40
2022-07-28T10:49:51.104Z,76.80
2022-07-28T10:52:51.561Z,79.40
2022-07-28T10:55:50.750Z,78.50
2022-07-28T10:58:49.930Z,77.10
2022-07-28T11:01:49.524Z,78.00
2022-07-28T11:04:59.238Z,77.70
2022-07-28T11:07:49.317Z,74.90
2022-07-28T11:10:56.252Z,76.70
2022-07-28T11:13:51.543Z,72.70
2022-07-28T11:16:40.271Z,75.80
2022-07-28T11:19:40.717Z,74.00
2022-07-28T11:22:35.959Z,74.50
2022-07-28T11:25:23.579Z,74.90
2022-07-28T11:28:12.473Z,75.30
2022-07-28T11:31:00.414Z,74.80
2022-07-28T11:33:57.540Z,73.90
2022-07-28T11:37:05.982Z,73.60
2022-07-28T11:39:53.413Z,75.00
2022-07-28T11:42:41.295Z,75.50
2022-07-28T11:45:38.362Z,75.10
2022-07-28T11:48:26.962Z,74.30
2022-07-28T11:51:16.070Z,75.60
2022-07-28T11:54:05.198Z,73.70
2022-07-28T11:56:59.564Z,73.30
2022-07-28T11:59:50.523Z,69.70
2022-07-28T12:02:42.463Z,74.10
2022-07-28T12:05:34.238Z,70.70
2022-07-28T12:08:29.742Z,73.00
2022-07-28T12:11:17.808Z,74.10
2022-07-28T12:14:07.014Z,73.70
2022-07-28T12:16:54.755Z,73.40
2022-07-28T12:19:43.861Z,71.80
2022-07-28T12:22:32.035Z,73.00
2022-07-28T12:25:20.216Z,73.10
2022-07-28T12:28:16.916Z,72.80
2022-07-28T12:31:12.866Z,71.00
2022-07-28T12:34:00.933Z,70.30
2022-07-28T12:36:50.286Z,73.30
2022-07-28T12:39:42.286Z,70.20
2022-07-28T12:42:33.090Z,71.10
2022-07-28T12:45:21.098Z,69.70
2022-07-28T12:48:09.332Z,71.00
2022-07-28T12:50:57.216Z,71.00
2022-07-28T12:53:53.575Z,70.90
2022-07-28T12:56:48.334Z,69.30
2022-07-28T12:59:38.468Z,70.70
2022-07-28T13:02:38.003Z,71.80
2022-07-28T13:05:32.817Z,70.00
2022-07-28T13:08:20.881Z,69.60
2022-07-28T13:11:28.211Z,71.90
2022-07-28T13:14:40.330Z,70.30
2022-07-28T13:17:31.882Z,69.10
2022-07-28T13:20:20.587Z,69.50
2022-07-28T13:23:08.345Z,69.90
2022-07-28T13:25:57.089Z,69.80
2022-07-28T13:28:45.857Z,69.40
2022-07-28T13:31:35.859Z,67.10
2022-07-28T13:34:23.858Z,69.30
2022-07-28T13:37:12.296Z,69.70
2022-07-28T13:40:00.750Z,72.60
2022-07-28T13:42:53.139Z,70.00
2022-07-28T13:45:46.084Z,69.40
2022-07-28T13:48:36.063Z,69.30
2022-07-28T13:51:24.052Z,70.90
2022-07-28T13:54:11.947Z,70.10
2022-07-28T13:56:59.895Z,69.30
2022-07-28T13:59:47.877Z,69.00
2022-07-28T14:02:37.124Z,69.00
2022-07-28T14:05:24.844Z,68.60
2022-07-28T14:08:20.502Z,69.20
2022-07-28T14:11:13.122Z,68.90
2022-07-28T14:14:01.701Z,69.90
2022-07-28T14:16:49.601Z,70.50
2022-07-28T14:19:39.847Z,70.00
2022-07-28T14:22:27.502Z,69.00
2022-07-28T14:25:21.114Z,68.70
2022-07-28T14:28:08.973Z,68.80
2022-07-28T14:30:56.693Z,68.70
2022-07-28T14:33:48.324Z,68.60
2022-07-28T14:36:40.057Z,70.10
2022-07-28T14:39:27.896Z,70.10
2022-07-28T14:42:15.676Z,70.20
2022-07-28T14:45:05.615Z,69.10
2022-07-28T14:47:53.308Z,70.10
2022-07-28T14:50:41.467Z,69.70
2022-07-28T14:53:30.466Z,70.30
2022-07-28T14:56:18.156Z,68.30
2022-07-28T14:59:05.683Z,68.60
2022-07-28T15:01:53.751Z,68.60
2022-07-28T15:04:42.095Z,69.40
2022-07-28T15:07:29.601Z,68.70
2022-07-28T15:10:19.844Z,69.20
2022-07-28T15:13:07.806Z,69.50
2022-07-28T15:15:59.928Z,70.10
2022-07-28T15:19:09.975Z,69.30
2022-07-28T15:21:59.274Z,70.00
2022-07-28T15:24:48.772Z,70.00
2022-07-28T15:27:42.898Z,69.30
2022-07-28T15:30:33.941Z,68.50
2022-07-28T15:33:21.918Z,68.70
2022-07-28T15:36:10.066Z,69.10
2022-07-28T15:38:58.146Z,67.60
2022-07-28T15:41:48.958Z,68.30
2022-07-28T15:44:38.091Z,68.20
2022-07-28T15:47:25.744Z,68.30
2022-07-28T15:50:13.363Z,67.80
2022-07-28T15:53:00.663Z,68.60
2022-07-28T15:55:51.256Z,67.50
2022-07-28T15:58:39.260Z,67.60
2022-07-28T16:01:28.509Z,69.20
2022-07-28T16:04:16.451Z,68.10
2022-07-28T16:07:24.037Z,68.10
2022-07-28T16:10:11.738Z,68.20
2022-07-28T16:12:59.387Z,67.00
2022-07-28T16:15:46.828Z,67.20
2022-07-28T16:18:36.486Z,67.60
2022-07-28T16:21:23.965Z,66.80
2022-07-28T16:24:11.664Z,66.80
2022-07-28T16:26:59.532Z,67.30
2022-07-28T16:29:49.446Z,67.20
2022-07-28T16:32:36.992Z,67.50
2022-07-28T16:35:26.416Z,68.10
2022-07-28T16:38:14.244Z,67.00
2022-07-28T16:41:01.611Z,68.00
2022-07-28T16:43:49.028Z,67.10
2022-07-28T16:46:36.697Z,66.60
2022-07-28T16:49:24.350Z,66.50
2022-07-28T16:52:13.707Z,67.40
2022-07-28T16:55:01.363Z,69.00
2022-07-28T16:57:48.737Z,68.00
2022-07-28T17:00:36.171Z,67.40
2022-07-28T17:03:23.909Z,67.10
2022-07-28T17:06:11.870Z,66.50
2022-07-28T17:09:00.673Z,67.00
2022-07-28T17:11:48.483Z,65.70
2022-07-28T17:14:35.664Z,66.90
2022-07-28T17:17:22.802Z,66.80
2022-07-28T17:20:11.301Z,66.00
2022-07-28T17:23:00.131Z,67.30
2022-07-28T17:28:56.236Z,65.80
2022-07-28T17:31:43.670Z,66.20
2022-07-28T17:34:31.399Z,67.30
2022-07-28T17:37:19.123Z,66.80
2022-07-28T17:40:08.108Z,67.70
2022-07-28T17:42:57.160Z,66.90
2022-07-28T17:45:44.921Z,66.80
2022-07-28T17:48:32.855Z,66.40
2022-07-28T17:51:20.216Z,67.60
2022-07-28T17:54:07.550Z,67.80
2022-07-28T17:56:59.759Z,68.10
2022-07-28T17:59:51.189Z,69.20
2022-07-28T18:02:39.314Z,67.00
2022-07-28T18:05:26.831Z,67.40
2022-07-28T18:08:15.519Z,67.40
2022-07-28T18:11:02.901Z,67.60
2022-07-28T18:14:04.309Z,67.70
2022-07-28T18:16:54.047Z,68.10
2022-07-28T18:19:45.374Z,68.00
2022-07-28T18:22:33.247Z,68.40
2022-07-28T18:25:21.172Z,68.20
2022-07-28T18:28:09.240Z,68.20
2022-07-28T18:30:56.932Z,69.50
2022-07-28T18:33:47.534Z,68.70
2022-07-28T18:36:35.123Z,68.20
2022-07-28T18:39:22.856Z,68.60
2022-07-28T18:42:10.658Z,69.10
2022-07-28T18:44:57.943Z,69.50
2022-07-28T18:47:47.770Z,69.20
2022-07-28T18:50:37.207Z,69.10
2022-07-28T18:53:28.845Z,69.50
2022-07-28T18:56:16.133Z,69.40
2022-07-28T18:59:03.436Z,68.50
2022-07-28T19:01:50.725Z,68.30
2022-07-28T19:04:38.081Z,69.10
2022-07-28T19:07:26.970Z,68.50
2022-07-28T19:10:14.624Z,68.90
2022-07-28T19:13:01.987Z,68.90
2022-07-28T19:15:49.395Z,70.00
2022-07-28T19:18:37.225Z,68.00
2022-07-28T19:21:25.336Z,68.40
2022-07-28T19:24:15.192Z,68.90
2022-07-28T19:27:05.306Z,67.30
2022-07-28T19:29:53.002Z,68.50
2022-07-28T19:32:41.839Z,67.60
2022-07-28T19:35:29.383Z,66.60
2022-07-28T19:38:16.847Z,69.10
2022-07-28T19:41:05.548Z,68.90
2022-07-28T19:43:53.235Z,68.00
2022-07-28T19:46:40.640Z,67.00
2022-07-28T19:49:28.088Z,67.30
2022-07-28T19:52:15.465Z,66.80
2022-07-28T19:55:04.309Z,68.30
2022-07-28T19:57:55.017Z,68.20
2022-07-28T20:00:42.391Z,67.60
2022-07-28T20:04:00.611Z,68.30
2022-07-28T20:06:37.342Z,67.60
2022-07-28T20:09:24.837Z,67.40
2022-07-28T20:12:12.345Z,68.60
2022-07-28T20:15:01.347Z,66.70
2022-07-28T20:17:49.166Z,66.70
2022-07-28T20:20:36.793Z,66.40
2022-07-28T20:23:24.195Z,66.30
2022-07-28T20:26:11.457Z,67.70
2022-07-28T20:28:59.388Z,67.60
2022-07-28T20:31:49.653Z,68.50
2022-07-28T20:34:37.042Z,67.70
2022-07-28T20:37:35.980Z,67.00
2022-07-28T20:40:24.155Z,66.20
2022-07-28T20:43:11.417Z,67.40
2022-07-28T20:45:58.913Z,68.20
2022-07-28T20:48:47.694Z,68.00
2022-07-28T20:51:35.734Z,67.00
2022-07-28T20:54:23.344Z,67.40
2022-07-28T20:57:10.998Z,67.20
2022-07-28T20:59:58.654Z,66.20
2022-07-28T21:02:46.039Z,67.40
2022-07-28T21:05:35.992Z,67.10
2022-07-28T21:08:23.620Z,67.80
2022-07-28T21:11:10.897Z,67.00
2022-07-28T21:13:58.950Z,68.10
2022-07-28T21:16:46.662Z,68.30
2022-07-28T21:19:34.218Z,67.80
2022-07-28T21:22:22.935Z,66.00
2022-07-28T21:25:11.353Z,66.70
2022-07-28T21:28:16.456Z,66.10
2022-07-28T21:31:03.886Z,67.40
2022-07-28T21:33:51.301Z,66.60
2022-07-28T21:36:39.423Z,67.20
2022-07-28T21:39:28.449Z,66.60
2022-07-28T21:42:16.012Z,67.40
2022-07-28T21:45:03.515Z,65.80
2022-07-28T21:47:54.961Z,67.60
2022-07-28T21:50:42.653Z,67.20
2022-07-28T21:53:30.806Z,67.00
2022-07-28T21:56:20.125Z,67.50
2022-07-28T21:59:07.895Z,65.90
2022-07-28T22:01:56.106Z,66.30
2022-07-28T22:04:44.286Z,65.90
2022-07-28T22:07:32.397Z,67.30
2022-07-28T22:10:20.230Z,65.20
2022-07-28T22:13:09.401Z,67.00
2022-07-28T22:15:59.680Z,67.20
2022-07-28T22:18:47.588Z,65.60
2022-07-28T22:21:35.328Z,66.80
2022-07-28T22:24:23.287Z,65.70
2022-07-28T22:27:11.227Z,66.40
2022-07-28T22:30:00.741Z,66.70
2022-07-28T22:32:48.808Z,66.50
2022-07-28T22:35:36.981Z,65.70
2022-07-28T22:38:25.094Z,65.70
2022-07-28T22:41:12.847Z,65.70
2022-07-28T22:44:01.312Z,65.00
2022-07-28T22:46:50.357Z,66.50
2022-07-28T22:49:38.755Z,65.60
2022-07-28T22:52:27.512Z,66.30
2022-07-28T22:55:15.449Z,67.00
2022-07-28T22:58:05.829Z,65.40
2022-07-28T23:00:53.906Z,67.20
2022-07-28T23:03:45.020Z,67.40
2022-07-28T23:06:35.320Z,67.50
2022-07-28T23:09:23.064Z,66.40
2022-07-28T23:12:12.323Z,66.90
2022-07-28T23:15:00.337Z,67.30
2022-07-28T23:17:48.206Z,67.80
2022-07-28T23:20:39.823Z,67.70
2022-07-28T23:23:27.750Z,67.90
2022-07-28T23:26:15.609Z,68.20
2022-07-28T23:29:03.991Z,66.90
2022-07-28T23:31:52.772Z,67.60
2022-07-28T23:34:40.762Z,67.40
2022-07-28T23:37:30.415Z,68.00
2022-07-28T23:40:18.731Z,67.20
2022-07-28T23:43:06.897Z,68.00
2022-07-28T23:45:54.455Z,68.10
2022-07-28T23:48:42.511Z,67.20
2022-07-28T23:51:47.266Z,67.60
2022-07-28T23:54:37.386Z,69.10
2022-07-28T23:57:25.550Z,67.40
